createdAt,value
2018-12-17T00:00:25.836Z,-0.6
2018-12-17T00:01:35.519Z,-0.6
2018-12-17T00:02:45.454Z,-0.69
2018-12-17T00:03:55.396Z,-0.6
2018-12-17T00:05:05.343Z,-0.56
2018-12-17T00:06:15.274Z,-0.57
2018-12-17T00:07:25.207Z,-0.57
2018-12-17T00:08:36.927Z,-0.56
2018-12-17T00:09:46.864Z,-0.59
2018-12-17T00:10:56.796Z,-0.62
2018-12-17T00:12:06.735Z,-0.66
2018-12-17T00:13:21.853Z,-0.59
2018-12-17T00:14:31.546Z,-0.6
2018-12-17T00:15:41.481Z,-0.53
2018-12-17T00:16:51.416Z,-0.57
2018-12-17T00:18:01.092Z,-0.59
2018-12-17T00:19:11.019Z,-0.54
2018-12-17T00:20:20.713Z,-0.6
2018-12-17T00:21:30.733Z,-0.56
2018-12-17T00:22:40.667Z,-0.59
2018-12-17T00:23:50.600Z,-0.59
2018-12-17T00:25:00.528Z,-0.53
2018-12-17T00:26:10.473Z,-0.59
2018-12-17T00:27:20.172Z,-0.51
2018-12-17T00:28:29.861Z,-0.53
2018-12-17T00:29:39.550Z,-0.53
2018-12-17T00:30:48.969Z,-0.46
2018-12-17T00:31:58.896Z,-0.49
2018-12-17T00:33:08.337Z,-0.46
2018-12-17T00:34:18.025Z,-0.46
2018-12-17T00:35:27.974Z,-0.46
2018-12-17T00:36:37.657Z,-0.48
2018-12-17T00:37:47.588Z,-0.51
2018-12-17T00:38:57.276Z,-0.48
2018-12-17T00:40:07.262Z,-0.48
2018-12-17T00:41:17.386Z,-0.49
2018-12-17T00:42:27.065Z,-0.45
2018-12-17T00:43:36.996Z,-0.49
2018-12-17T00:44:46.940Z,-0.46
2018-12-17T00:45:56.866Z,-0.46
2018-12-17T00:47:06.571Z,-0.45
2018-12-17T00:48:16.504Z,-0.45
2018-12-17T00:49:25.932Z,-0.51
2018-12-17T00:50:35.398Z,-0.51
2018-12-17T00:51:45.333Z,-0.44
2018-12-17T00:52:55.013Z,-0.45
2018-12-17T00:54:04.699Z,-0.42
2018-12-17T00:55:14.615Z,-0.48
2018-12-17T00:56:24.565Z,-0.44
2018-12-17T00:57:34.562Z,-0.38
2018-12-17T00:58:44.260Z,-0.39
2018-12-17T00:59:54.190Z,-0.36
2018-12-17T01:01:04.137Z,-0.45
2018-12-17T01:02:13.825Z,-0.38
2018-12-17T01:03:23.519Z,-0.38
2018-12-17T01:04:32.951Z,-0.35
2018-12-17T01:05:42.383Z,-0.42
2018-12-17T01:06:52.061Z,-0.33
2018-12-17T01:08:02.003Z,-0.45
2018-12-17T01:09:11.692Z,-0.41
2018-12-17T01:10:21.630Z,-0.38
2018-12-17T01:11:31.581Z,-0.51
2018-12-17T01:12:41.510Z,-0.45
2018-12-17T01:13:51.180Z,-0.42
2018-12-17T01:15:00.868Z,-0.46
2018-12-17T01:16:10.545Z,-0.45
2018-12-17T01:17:20.461Z,-0.41
2018-12-17T01:18:30.142Z,-0.38
2018-12-17T01:19:40.072Z,-0.44
2018-12-17T01:20:50.008Z,-0.45
2018-12-17T01:21:59.996Z,-0.39
2018-12-17T01:23:09.701Z,-0.38
2018-12-17T01:24:19.380Z,-0.42
2018-12-17T01:25:29.085Z,-0.42
2018-12-17T01:26:39.066Z,-0.36
2018-12-17T01:27:48.487Z,-0.44
2018-12-17T01:28:58.178Z,-0.36
2018-12-17T01:30:08.114Z,-0.41
2018-12-17T01:31:17.807Z,-0.44
2018-12-17T01:32:27.487Z,-0.38
2018-12-17T01:33:37.165Z,-0.45
2018-12-17T01:34:47.158Z,-0.51
2018-12-17T01:35:56.830Z,-0.48
2018-12-17T01:37:06.773Z,-0.45
2018-12-17T01:38:16.472Z,-0.49
2018-12-17T01:39:26.166Z,-0.51
2018-12-17T01:40:35.599Z,-0.48
2018-12-17T01:41:45.290Z,-0.46
2018-12-17T01:42:55.228Z,-0.53
2018-12-17T01:44:04.920Z,-0.53
2018-12-17T01:45:14.614Z,-0.48
2018-12-17T01:46:24.560Z,-0.42
2018-12-17T01:47:34.488Z,-0.49
2018-12-17T01:48:44.450Z,-0.46
2018-12-17T01:49:54.385Z,-0.45
2018-12-17T01:51:04.316Z,-0.48
2018-12-17T01:52:13.757Z,-0.51
2018-12-17T01:53:23.195Z,-0.45
2018-12-17T01:54:32.882Z,-0.49
2018-12-17T01:55:42.568Z,-0.46
2018-12-17T01:56:51.982Z,-0.39
2018-12-17T01:58:01.912Z,-0.35
2018-12-17T01:59:11.343Z,-0.36
2018-12-17T02:00:21.058Z,-0.41
2018-12-17T02:01:30.996Z,-0.42
2018-12-17T02:02:40.875Z,-0.42
2018-12-17T02:03:50.801Z,-0.49
2018-12-17T02:05:00.496Z,-0.38
2018-12-17T02:06:10.434Z,-0.48
2018-12-17T02:07:20.368Z,-0.44
2018-12-17T02:08:30.054Z,-0.48
2018-12-17T02:09:39.991Z,-0.39
2018-12-17T02:10:49.924Z,-0.44
2018-12-17T02:11:59.852Z,-0.44
2018-12-17T02:13:09.794Z,-0.41
2018-12-17T02:14:19.753Z,-0.44
2018-12-17T02:15:29.675Z,-0.44
2018-12-17T02:16:39.363Z,-0.42
2018-12-17T02:17:48.794Z,-0.42
2018-12-17T02:18:58.497Z,-0.42
2018-12-17T02:20:08.622Z,-0.38
2018-12-17T02:21:18.071Z,-0.41
2018-12-17T02:22:28.002Z,-0.42
2018-12-17T02:23:37.689Z,-0.35
2018-12-17T02:24:47.615Z,-0.33
2018-12-17T02:25:57.543Z,-0.35
2018-12-17T02:27:07.214Z,-0.3
2018-12-17T02:28:16.905Z,-0.33
2018-12-17T02:29:26.837Z,-0.23
2018-12-17T02:30:36.784Z,-0.27
2018-12-17T02:31:46.517Z,-0.15
2018-12-17T02:32:56.214Z,-0.26
2018-12-17T02:34:05.669Z,-0.24
2018-12-17T02:35:15.602Z,-0.24
2018-12-17T02:36:25.537Z,-0.33
2018-12-17T02:37:35.605Z,-0.31
2018-12-17T02:38:45.291Z,-0.3
2018-12-17T02:39:55.029Z,-0.35
2018-12-17T02:41:04.988Z,-0.28
2018-12-17T02:42:14.927Z,-0.28
2018-12-17T02:43:24.870Z,-0.31
2018-12-17T02:44:34.574Z,-0.31
2018-12-17T02:45:44.344Z,-0.35
2018-12-17T02:46:54.049Z,-0.42
2018-12-17T02:48:03.739Z,-0.42
2018-12-17T02:49:13.679Z,-0.3
2018-12-17T02:50:23.607Z,-0.36
2018-12-17T02:51:33.376Z,-0.41
2018-12-17T02:52:43.162Z,-0.35
2018-12-17T02:53:53.090Z,-0.3
2018-12-17T02:55:02.978Z,-0.35
2018-12-17T02:56:13.057Z,-0.36
2018-12-17T02:57:22.732Z,-0.41
2018-12-17T02:58:32.666Z,-0.42
2018-12-17T02:59:49.169Z,-0.31
2018-12-17T03:00:59.099Z,-0.31
2018-12-17T03:02:08.780Z,-0.39
2018-12-17T03:03:18.471Z,-0.31
2018-12-17T03:04:28.398Z,-0.31
2018-12-17T03:05:38.083Z,-0.33
2018-12-17T03:06:47.979Z,-0.28
2018-12-17T03:07:57.657Z,-0.31
2018-12-17T03:09:07.340Z,-0.28
2018-12-17T03:10:17.018Z,-0.41
2018-12-17T03:11:26.960Z,-0.39
2018-12-17T03:12:36.916Z,-0.39
2018-12-17T03:13:46.591Z,-0.38
2018-12-17T03:14:56.264Z,-0.41
2018-12-17T03:16:05.978Z,-0.39
2018-12-17T03:17:16.030Z,-0.38
2018-12-17T03:18:25.967Z,-0.38
2018-12-17T03:19:35.928Z,-0.35
2018-12-17T03:20:45.126Z,-0.36
2018-12-17T03:21:55.082Z,-0.31
2018-12-17T03:23:05.032Z,-0.35
2018-12-17T03:24:14.980Z,-0.26
2018-12-17T03:25:24.921Z,-0.21
2018-12-17T03:26:34.937Z,-0.28
2018-12-17T03:27:44.612Z,-0.23
2018-12-17T03:28:56.843Z,-0.23
2018-12-17T03:30:06.996Z,-0.23
2018-12-17T03:31:16.316Z,-0.2
2018-12-17T03:32:26.318Z,-0.17
2018-12-17T03:33:36.340Z,-0.17
2018-12-17T03:34:46.036Z,-0.18
2018-12-17T03:35:55.716Z,-0.18
2018-12-17T03:37:05.658Z,-0.12
2018-12-17T03:38:15.347Z,-0.18
2018-12-17T03:39:24.781Z,-0.2
2018-12-17T03:40:34.215Z,-0.15
2018-12-17T03:41:44.169Z,-0.13
2018-12-17T03:42:53.340Z,-0.15
2018-12-17T03:44:03.293Z,-0.17
2018-12-17T03:45:13.237Z,-0.17
2018-12-17T03:46:23.174Z,-0.13
2018-12-17T03:47:33.098Z,-0.15
2018-12-17T03:48:43.057Z,-0.18
2018-12-17T03:49:53.015Z,-0.13
2018-12-17T03:51:02.458Z,-0.17
2018-12-17T03:52:12.392Z,-0.21
2018-12-17T03:53:22.334Z,-0.15
2018-12-17T03:54:32.282Z,-0.1
2018-12-17T03:55:41.731Z,-0.17
2018-12-17T03:56:51.667Z,-0.18
2018-12-17T03:58:01.714Z,-0.27
2018-12-17T03:59:11.378Z,-0.26
2018-12-17T04:00:21.071Z,-0.18
2018-12-17T04:01:30.993Z,-0.24
2018-12-17T04:02:40.757Z,-0.18
2018-12-17T04:03:50.690Z,-0.28
2018-12-17T04:05:00.389Z,-0.23
2018-12-17T04:06:10.342Z,-0.24
2018-12-17T04:07:20.043Z,-0.15
2018-12-17T04:08:29.745Z,-0.26
2018-12-17T04:09:39.669Z,-0.2
2018-12-17T04:10:49.708Z,-0.17
2018-12-17T04:11:59.656Z,-0.2
2018-12-17T04:13:09.369Z,-0.2
2018-12-17T04:14:18.797Z,-0.2
2018-12-17T04:15:28.501Z,-0.23
2018-12-17T04:16:38.446Z,-0.26
2018-12-17T04:17:48.379Z,-0.28
2018-12-17T04:18:58.370Z,-0.38
2018-12-17T04:20:08.037Z,-0.28
2018-12-17T04:21:17.727Z,-0.27
2018-12-17T04:22:27.868Z,-0.26
2018-12-17T04:23:37.637Z,-0.26
2018-12-17T04:24:47.586Z,-0.18
2018-12-17T04:25:57.523Z,-0.21
2018-12-17T04:27:07.240Z,-0.13
2018-12-17T04:28:16.931Z,-0.13
2018-12-17T04:29:26.386Z,-0.18
2018-12-17T04:30:35.813Z,-0.13
2018-12-17T04:31:45.501Z,-0.15
2018-12-17T04:32:55.186Z,-0.12
2018-12-17T04:34:04.884Z,-0.13
2018-12-17T04:35:14.592Z,-0.18
2018-12-17T04:36:24.539Z,-0.07
2018-12-17T04:37:34.477Z,-0.09
2018-12-17T04:38:44.200Z,-0.1
2018-12-17T04:39:55.907Z,-0.05
2018-12-17T04:41:05.098Z,-0.12
2018-12-17T04:42:14.789Z,-0.06
2018-12-17T04:43:24.479Z,-0.05
2018-12-17T04:44:34.435Z,-0.07
2018-12-17T04:45:44.135Z,-0.02
2018-12-17T04:46:54.078Z,-0.05
2018-12-17T04:48:04.028Z,-0.02
2018-12-17T04:49:13.966Z,0.02
2018-12-17T04:50:23.661Z,0
2018-12-17T04:51:33.677Z,0.05
2018-12-17T04:52:43.617Z,0.01
2018-12-17T04:53:53.571Z,0.12
2018-12-17T04:55:03.254Z,0.06
2018-12-17T04:56:13.179Z,0.01
2018-12-17T04:57:23.148Z,0.09
2018-12-17T04:58:33.099Z,0.12
2018-12-17T04:59:43.038Z,0.12
2018-12-17T05:00:52.980Z,0.19
2018-12-17T05:02:02.914Z,0.11
2018-12-17T05:03:13.192Z,0.16
2018-12-17T05:04:23.139Z,0.19
2018-12-17T05:05:32.856Z,0.19
2018-12-17T05:06:42.800Z,0.12
2018-12-17T05:07:52.272Z,0.08
2018-12-17T05:09:02.222Z,0.08
2018-12-17T05:10:11.646Z,0.09
2018-12-17T05:11:21.624Z,0.08
2018-12-17T05:12:31.307Z,0.05
2018-12-17T05:13:40.997Z,0.11
2018-12-17T05:14:50.897Z,0.06
2018-12-17T05:16:00.853Z,0.16
2018-12-17T05:17:10.802Z,0.16
2018-12-17T05:18:20.824Z,0.13
2018-12-17T05:19:30.782Z,0.12
2018-12-17T05:20:40.480Z,0.19
2018-12-17T05:21:51.927Z,0.09
2018-12-17T05:23:01.878Z,0.12
2018-12-17T05:24:11.830Z,0.09
2018-12-17T05:25:21.762Z,0.05
2018-12-17T05:26:31.456Z,0.01
2018-12-17T05:27:41.138Z,0.01
2018-12-17T05:28:51.098Z,0.05
2018-12-17T05:30:01.041Z,0.01
2018-12-17T05:31:10.725Z,0.05
2018-12-17T05:32:20.665Z,0.05
2018-12-17T05:33:30.606Z,0.05
2018-12-17T05:34:40.536Z,0.06
2018-12-17T05:35:49.982Z,0
2018-12-17T05:36:59.962Z,0.02
2018-12-17T05:38:09.638Z,0.09
2018-12-17T05:39:19.634Z,0.12
2018-12-17T05:40:29.580Z,0.13
2018-12-17T05:41:39.290Z,0.23
2018-12-17T05:42:49.249Z,0.23
2018-12-17T05:43:58.692Z,0.2
2018-12-17T05:45:08.378Z,0.2
2018-12-17T05:46:18.058Z,0.19
2018-12-17T05:47:27.984Z,0.2
2018-12-17T05:48:37.684Z,0.29
2018-12-17T05:49:47.626Z,0.2
2018-12-17T05:50:57.582Z,0.24
2018-12-17T05:52:07.560Z,0.23
2018-12-17T05:53:17.517Z,0.15
2018-12-17T05:54:27.451Z,0.26
2018-12-17T05:55:37.396Z,0.18
2018-12-17T05:56:47.089Z,0.16
2018-12-17T05:57:57.045Z,0.12
2018-12-17T05:59:06.735Z,0.15
2018-12-17T06:00:16.708Z,0.15
2018-12-17T06:01:26.848Z,0.18
2018-12-17T06:02:36.804Z,0.18
2018-12-17T06:03:46.795Z,0.15
2018-12-17T06:04:56.739Z,0.12
2018-12-17T06:06:06.678Z,0.15
2018-12-17T06:07:16.888Z,0.13
2018-12-17T06:08:26.096Z,0
2018-12-17T06:09:35.774Z,0.15
2018-12-17T06:10:45.708Z,0.09
2018-12-17T06:11:55.635Z,0
2018-12-17T06:13:05.307Z,-0.03
2018-12-17T06:14:14.986Z,0.01
2018-12-17T06:15:24.674Z,-0.03
2018-12-17T06:16:34.382Z,0.05
2018-12-17T06:17:44.325Z,0.05
2018-12-17T06:18:54.928Z,-0.07
2018-12-17T06:20:04.362Z,-0.02
2018-12-17T06:21:14.305Z,0.01
2018-12-17T06:22:24.243Z,-0.02
2018-12-17T06:23:33.680Z,0.06
2018-12-17T06:24:43.361Z,0.06
2018-12-17T06:25:53.155Z,0.11
2018-12-17T06:27:03.119Z,0.08
2018-12-17T06:28:13.055Z,0.06
2018-12-17T06:29:23.008Z,0.01
2018-12-17T06:30:32.963Z,0.08
2018-12-17T06:31:42.638Z,0.05
2018-12-17T06:32:52.595Z,0.08
2018-12-17T06:34:02.543Z,0.02
2018-12-17T06:35:12.263Z,0.08
2018-12-17T06:36:21.738Z,0.06
2018-12-17T06:37:31.439Z,0.05
2018-12-17T06:38:41.375Z,-0.03
2018-12-17T06:39:51.073Z,0
2018-12-17T06:41:01.014Z,-0.05
2018-12-17T06:42:10.707Z,-0.03
2018-12-17T06:43:20.721Z,-0.05
2018-12-17T06:44:30.687Z,-0.05
2018-12-17T06:45:40.624Z,-0.05
2018-12-17T06:46:50.778Z,-0.09
2018-12-17T06:48:01.267Z,-0.09
2018-12-17T06:49:10.838Z,-0.07
2018-12-17T06:50:20.908Z,0
2018-12-17T06:51:30.608Z,-0.05
2018-12-17T06:52:40.292Z,0.01
2018-12-17T06:53:49.994Z,-0.07
2018-12-17T06:54:59.960Z,-0.03
2018-12-17T06:56:10.840Z,-0.06
2018-12-17T06:57:20.798Z,-0.03
2018-12-17T06:58:30.771Z,-0.1
2018-12-17T06:59:47.405Z,-0.03
2018-12-17T07:00:57.355Z,-0.06
2018-12-17T07:02:07.299Z,-0.03
2018-12-17T07:03:16.997Z,-0.06
2018-12-17T07:04:26.940Z,-0.07
2018-12-17T07:05:36.622Z,-0.07
2018-12-17T07:06:46.573Z,-0.07
2018-12-17T07:07:56.293Z,-0.06
2018-12-17T07:09:06.233Z,0
2018-12-17T07:10:15.935Z,-0.02
2018-12-17T07:11:25.890Z,-0.09
2018-12-17T07:12:35.840Z,-0.05
2018-12-17T07:13:45.787Z,0.01
2018-12-17T07:14:55.733Z,0.11
2018-12-17T07:16:05.681Z,0.06
2018-12-17T07:17:15.405Z,0
2018-12-17T07:18:25.386Z,0.02
2018-12-17T07:19:35.311Z,0.08
2018-12-17T07:20:45.019Z,0.05
2018-12-17T07:21:54.979Z,0.13
2018-12-17T07:23:04.677Z,0.11
2018-12-17T07:24:14.628Z,0.15
2018-12-17T07:25:24.331Z,0.16
2018-12-17T07:26:34.295Z,0.15
2018-12-17T07:27:44.217Z,0.18
2018-12-17T07:28:54.163Z,0.16
2018-12-17T07:30:03.863Z,0.23
2018-12-17T07:31:13.811Z,0.16
2018-12-17T07:32:23.570Z,0.27
2018-12-17T07:33:33.515Z,0.19
2018-12-17T07:34:43.231Z,0.16
2018-12-17T07:35:53.165Z,0.15
2018-12-17T07:37:03.091Z,0.16
2018-12-17T07:38:12.768Z,0.19
2018-12-17T07:39:22.457Z,0.26
2018-12-17T07:40:32.395Z,0.33
2018-12-17T07:41:42.073Z,0.27
2018-12-17T07:42:52.030Z,0.34
2018-12-17T07:44:01.739Z,0.33
2018-12-17T07:45:11.424Z,0.36
2018-12-17T07:46:21.363Z,0.31
2018-12-17T07:47:31.306Z,0.34
2018-12-17T07:48:40.785Z,0.33
2018-12-17T07:49:50.463Z,0.47
2018-12-17T07:50:59.655Z,0.44
2018-12-17T07:52:09.359Z,0.39
2018-12-17T07:53:19.306Z,0.48
2018-12-17T07:54:28.766Z,0.44
2018-12-17T07:55:38.529Z,0.4
2018-12-17T07:56:48.484Z,0.47
2018-12-17T07:57:58.433Z,0.33
2018-12-17T07:59:08.386Z,0.31
2018-12-17T08:00:18.359Z,0.42
2018-12-17T08:01:28.075Z,0.34
2018-12-17T08:02:37.784Z,0.47
2018-12-17T08:03:47.253Z,0.4
2018-12-17T08:04:57.207Z,0.47
2018-12-17T08:06:06.924Z,0.39
2018-12-17T08:07:16.872Z,0.39
2018-12-17T08:08:26.835Z,0.36
2018-12-17T08:09:42.931Z,0.49
2018-12-17T08:10:52.634Z,0.44
2018-12-17T08:12:02.577Z,0.45
2018-12-17T08:13:12.027Z,0.45
2018-12-17T08:14:21.718Z,0.51
2018-12-17T08:15:31.176Z,0.45
2018-12-17T08:16:41.138Z,0.45
2018-12-17T08:17:51.082Z,0.47
2018-12-17T08:19:01.032Z,0.48
2018-12-17T08:20:11.197Z,0.44
2018-12-17T08:21:20.954Z,0.52
2018-12-17T08:22:30.653Z,0.52
2018-12-17T08:23:40.109Z,0.49
2018-12-17T08:24:50.948Z,0.63
2018-12-17T08:26:00.994Z,0.64
2018-12-17T08:27:10.937Z,0.67
2018-12-17T08:28:20.885Z,0.7
2018-12-17T08:29:30.625Z,0.71
2018-12-17T08:30:40.597Z,0.67
2018-12-17T08:31:50.541Z,0.74
2018-12-17T08:33:00.244Z,0.74
2018-12-17T08:34:09.954Z,0.68
2018-12-17T08:35:19.911Z,0.67
2018-12-17T08:36:29.870Z,0.73
2018-12-17T08:37:39.621Z,0.81
2018-12-17T08:38:49.322Z,0.74
2018-12-17T08:39:59.301Z,0.86
2018-12-17T08:41:08.514Z,0.82
2018-12-17T08:42:18.463Z,0.74
2018-12-17T08:43:28.403Z,0.71
2018-12-17T08:44:37.853Z,0.82
2018-12-17T08:45:47.286Z,0.86
2018-12-17T08:46:57.228Z,0.91
2018-12-17T08:48:07.197Z,0.82
2018-12-17T08:49:17.147Z,0.95
2018-12-17T08:50:26.841Z,0.86
2018-12-17T08:51:36.826Z,0.88
2018-12-17T08:52:46.762Z,0.99
2018-12-17T08:53:57.983Z,0.99
2018-12-17T08:55:08.002Z,1
2018-12-17T08:56:17.749Z,0.99
2018-12-17T08:57:27.456Z,0.96
2018-12-17T08:58:43.287Z,0.94
2018-12-17T08:59:52.737Z,0.94
2018-12-17T09:01:02.438Z,0.86
2018-12-17T09:02:12.407Z,0.94
2018-12-17T09:03:22.131Z,0.86
2018-12-17T09:04:32.119Z,0.91
2018-12-17T09:05:41.559Z,0.94
2018-12-17T09:06:51.512Z,0.96
2018-12-17T09:08:01.473Z,1.06
2018-12-17T09:09:11.152Z,1.12
2018-12-17T09:10:21.101Z,1.09
2018-12-17T09:11:31.111Z,1.16
2018-12-17T09:12:40.814Z,1.18
2018-12-17T09:13:50.775Z,1.04
2018-12-17T09:15:00.734Z,1.16
2018-12-17T09:16:10.678Z,1.09
2018-12-17T09:17:20.630Z,1.12
2018-12-17T09:18:30.564Z,1.18
2018-12-17T09:19:40.522Z,1.24
2018-12-17T09:20:50.235Z,1.22
2018-12-17T09:22:00.188Z,1.28
2018-12-17T09:23:10.179Z,1.32
2018-12-17T09:24:20.137Z,1.34
2018-12-17T09:25:29.824Z,1.32
2018-12-17T09:26:39.515Z,1.32
2018-12-17T09:27:49.454Z,1.32
2018-12-17T09:28:59.180Z,1.34
2018-12-17T09:30:08.901Z,1.3
2018-12-17T09:31:25.659Z,1.31
2018-12-17T09:32:35.610Z,1.27
2018-12-17T09:33:45.572Z,1.16
2018-12-17T09:34:55.263Z,1.14
2018-12-17T09:36:05.205Z,1.22
2018-12-17T09:37:15.155Z,1.12
2018-12-17T09:38:24.608Z,1.09
2018-12-17T09:39:34.566Z,1.06
2018-12-17T09:40:44.518Z,1.2
2018-12-17T09:41:54.528Z,1.14
2018-12-17T09:43:04.252Z,1.12
2018-12-17T09:44:14.206Z,1.12
2018-12-17T09:45:24.153Z,1.12
2018-12-17T09:46:33.682Z,1.18
2018-12-17T09:47:43.623Z,1.14
2018-12-17T09:48:53.560Z,1.16
2018-12-17T09:50:03.270Z,1.27
2018-12-17T09:51:19.301Z,1.32
2018-12-17T09:52:29.405Z,1.36
2018-12-17T09:53:39.133Z,1.27
2018-12-17T09:54:48.849Z,1.39
2018-12-17T09:55:58.534Z,1.39
2018-12-17T09:57:08.486Z,1.4
2018-12-17T09:58:18.421Z,1.38
2018-12-17T09:59:28.361Z,1.38
2018-12-17T10:00:37.803Z,1.39
2018-12-17T10:01:47.777Z,1.38
2018-12-17T10:02:57.479Z,1.39
2018-12-17T10:04:07.425Z,1.4
2018-12-17T10:05:17.112Z,1.48
2018-12-17T10:06:27.249Z,1.45
2018-12-17T10:07:36.961Z,1.43
2018-12-17T10:08:46.922Z,1.57
2018-12-17T10:09:56.623Z,1.4
2018-12-17T10:11:06.574Z,1.46
2018-12-17T10:12:16.517Z,1.42
2018-12-17T10:13:26.217Z,1.48
2018-12-17T10:14:35.927Z,1.52
2018-12-17T10:15:45.875Z,1.49
2018-12-17T10:16:55.862Z,1.56
2018-12-17T10:18:05.582Z,1.56
2018-12-17T10:19:15.536Z,1.6
2018-12-17T10:20:25.500Z,1.63
2018-12-17T10:21:35.200Z,1.61
2018-12-17T10:22:45.138Z,1.61
2018-12-17T10:23:54.576Z,1.58
2018-12-17T10:25:04.532Z,1.6
2018-12-17T10:26:14.251Z,1.61
2018-12-17T10:27:24.212Z,1.64
2018-12-17T10:28:34.159Z,1.7
2018-12-17T10:29:44.099Z,1.63
2018-12-17T10:30:54.056Z,1.74
2018-12-17T10:32:03.738Z,1.61
2018-12-17T10:33:13.450Z,1.58
2018-12-17T10:35:53.066Z,1.52
2018-12-17T10:37:02.795Z,1.5
2018-12-17T10:38:12.777Z,1.63
2018-12-17T10:39:22.482Z,1.63
2018-12-17T10:40:32.473Z,1.63
2018-12-17T10:41:42.449Z,1.66
2018-12-17T10:42:52.414Z,1.63
2018-12-17T10:44:01.612Z,1.7
2018-12-17T10:45:11.649Z,1.71
2018-12-17T10:46:21.123Z,1.81
2018-12-17T10:47:30.829Z,1.71
2018-12-17T10:48:40.825Z,1.67
2018-12-17T10:49:50.808Z,1.7
2018-12-17T10:51:00.508Z,1.7
2018-12-17T10:52:10.225Z,1.63
2018-12-17T10:53:20.183Z,1.66
2018-12-17T10:54:30.138Z,1.6
2018-12-17T10:55:39.844Z,1.61
2018-12-17T10:56:49.791Z,1.67
2018-12-17T10:57:59.763Z,1.64
2018-12-17T10:59:09.740Z,1.64
2018-12-17T11:00:19.444Z,1.64
2018-12-17T11:01:29.411Z,1.61
2018-12-17T11:02:40.146Z,1.64
2018-12-17T11:03:49.890Z,1.61
2018-12-17T11:04:59.637Z,1.66
2018-12-17T11:06:09.355Z,1.64
2018-12-17T11:07:19.314Z,1.74
2018-12-17T11:08:29.331Z,1.64
2018-12-17T11:09:39.276Z,1.78
2018-12-17T11:10:49.256Z,1.82
2018-12-17T11:11:59.048Z,1.78
2018-12-17T11:13:09.006Z,1.79
2018-12-17T11:14:18.953Z,1.7
2018-12-17T11:15:28.650Z,1.75
2018-12-17T11:16:38.384Z,1.81
2018-12-17T11:17:49.845Z,1.81
2018-12-17T11:18:59.554Z,1.79
2018-12-17T11:20:09.502Z,1.86
2018-12-17T11:21:19.451Z,1.88
2018-12-17T11:22:29.136Z,1.92
2018-12-17T11:23:39.088Z,1.89
2018-12-17T11:24:49.037Z,1.95
2018-12-17T11:25:58.996Z,1.93
2018-12-17T11:27:08.708Z,2
2018-12-17T11:28:18.418Z,2
2018-12-17T11:29:27.856Z,2.05
2018-12-17T11:30:37.309Z,2.04
2018-12-17T11:31:53.891Z,2.04
2018-12-17T11:33:03.851Z,2
2018-12-17T11:34:13.793Z,1.93
2018-12-17T11:35:23.807Z,2.03
2018-12-17T11:36:33.273Z,1.95
2018-12-17T11:37:42.995Z,1.97
2018-12-17T11:38:52.965Z,1.89
2018-12-17T11:40:02.919Z,1.93
2018-12-17T11:41:12.910Z,1.88
2018-12-17T11:42:22.876Z,1.92
2018-12-17T11:43:32.834Z,1.88
2018-12-17T11:44:48.965Z,1.81
2018-12-17T11:45:58.656Z,1.88
2018-12-17T11:47:08.346Z,1.88
2018-12-17T11:48:18.317Z,1.93
2018-12-17T11:49:27.752Z,1.97
2018-12-17T11:50:37.694Z,1.88
2018-12-17T11:51:47.378Z,2
2018-12-17T11:52:57.322Z,2.03
2018-12-17T11:54:07.033Z,2.03
2018-12-17T11:55:16.968Z,2.15
2018-12-17T11:56:26.657Z,2.12
2018-12-17T11:57:36.599Z,2.21
2018-12-17T11:58:46.542Z,2.28
2018-12-17T11:59:56.221Z,2.18
2018-12-17T12:01:05.919Z,2.14
2018-12-17T12:02:15.868Z,2.22
2018-12-17T12:03:25.557Z,2.15
2018-12-17T12:04:35.263Z,2.16
2018-12-17T12:05:44.981Z,2.28
2018-12-17T12:06:54.692Z,2.25
2018-12-17T12:08:04.630Z,2.23
2018-12-17T12:09:14.626Z,2.26
2018-12-17T12:10:25.864Z,2.28
2018-12-17T12:11:35.563Z,2.25
2018-12-17T12:12:45.504Z,2.34
2018-12-17T12:13:55.459Z,2.36
2018-12-17T12:15:05.171Z,2.28
2018-12-17T12:16:15.121Z,2.3
2018-12-17T12:17:24.824Z,2.39
2018-12-17T12:18:34.268Z,2.3
2018-12-17T12:19:44.192Z,2.37
2018-12-17T12:20:54.160Z,2.41
2018-12-17T12:22:03.873Z,2.43
2018-12-17T12:23:13.571Z,2.33
2018-12-17T12:24:23.547Z,2.34
2018-12-17T12:25:33.505Z,2.41
2018-12-17T12:26:43.224Z,2.43
2018-12-17T12:27:52.909Z,2.46
2018-12-17T12:29:02.603Z,2.28
2018-12-17T12:30:12.614Z,2.3
2018-12-17T12:31:22.620Z,2.33
2018-12-17T12:32:32.309Z,2.4
2018-12-17T12:33:42.246Z,2.44
2018-12-17T12:34:53.006Z,2.39
2018-12-17T12:36:02.707Z,2.36
2018-12-17T12:37:12.687Z,2.51
2018-12-17T12:38:22.384Z,2.51
2018-12-17T12:39:32.069Z,2.47
2018-12-17T12:40:42.024Z,2.5
2018-12-17T12:41:51.736Z,2.5
2018-12-17T12:43:01.675Z,2.5
2018-12-17T12:44:13.754Z,2.5
2018-12-17T12:45:23.710Z,2.51
2018-12-17T12:46:33.156Z,2.47
2018-12-17T12:47:42.600Z,2.44
2018-12-17T12:48:52.576Z,2.55
2018-12-17T12:50:02.278Z,2.46
2018-12-17T12:51:12.345Z,2.44
2018-12-17T12:52:22.038Z,2.36
2018-12-17T12:53:31.761Z,2.37
2018-12-17T12:54:41.208Z,2.37
2018-12-17T12:55:50.900Z,2.36
2018-12-17T12:57:00.785Z,2.4
2018-12-17T12:58:10.569Z,2.46
2018-12-17T12:59:19.777Z,2.32
2018-12-17T13:00:29.203Z,2.41
2018-12-17T13:01:39.144Z,2.23
2018-12-17T13:02:49.112Z,2.32
2018-12-17T13:03:58.802Z,2.25
2018-12-17T13:05:08.514Z,2.39
2018-12-17T13:06:18.485Z,2.34
2018-12-17T13:07:28.436Z,2.26
2018-12-17T13:08:38.144Z,2.44
2018-12-17T13:09:48.096Z,2.4
2018-12-17T13:10:57.798Z,2.37
2018-12-17T13:12:07.484Z,2.4
2018-12-17T13:13:17.440Z,2.37
2018-12-17T13:14:27.487Z,2.37
2018-12-17T13:15:37.427Z,2.37
2018-12-17T13:16:47.368Z,2.4
2018-12-17T13:17:56.805Z,2.34
2018-12-17T13:19:06.756Z,2.44
2018-12-17T13:20:16.709Z,2.4
2018-12-17T13:21:26.636Z,2.39
2018-12-17T13:22:36.580Z,2.28
2018-12-17T13:23:46.286Z,2.26
2018-12-17T13:24:56.230Z,2.26
2018-12-17T13:26:05.679Z,2.3
2018-12-17T13:27:15.119Z,2.34
2018-12-17T13:28:24.841Z,2.46
2018-12-17T13:29:34.801Z,2.3
2018-12-17T13:30:44.522Z,2.34
2018-12-17T13:31:54.466Z,2.3
2018-12-17T13:33:04.444Z,2.28
2018-12-17T13:34:14.420Z,2.44
2018-12-17T13:35:24.382Z,2.39
2018-12-17T13:36:34.330Z,2.3
2018-12-17T13:37:44.288Z,2.41
2018-12-17T13:38:54.221Z,2.3
2018-12-17T13:40:04.176Z,2.26
2018-12-17T13:41:13.918Z,2.37
2018-12-17T13:42:24.389Z,2.37
2018-12-17T13:43:34.408Z,2.3
2018-12-17T13:44:44.367Z,2.32
2018-12-17T13:45:54.308Z,2.4
2018-12-17T13:47:04.256Z,2.4
2018-12-17T13:48:14.211Z,2.36
2018-12-17T13:49:24.153Z,2.4
2018-12-17T13:50:35.026Z,2.34
2018-12-17T13:51:44.992Z,2.36
2018-12-17T13:52:54.930Z,2.41
2018-12-17T13:54:04.995Z,2.43
2018-12-17T13:55:14.751Z,2.46
2018-12-17T13:56:24.450Z,2.47
2018-12-17T13:57:34.392Z,2.5
2018-12-17T13:58:44.407Z,2.5
2018-12-17T13:59:54.348Z,2.5
2018-12-17T14:01:04.082Z,2.54
2018-12-17T14:02:14.039Z,2.47
2018-12-17T14:03:24.013Z,2.5
2018-12-17T14:04:33.448Z,2.47
2018-12-17T14:05:43.391Z,2.47
2018-12-17T14:06:53.352Z,2.5
2018-12-17T14:08:03.065Z,2.59
2018-12-17T14:09:13.015Z,2.41
2018-12-17T14:10:22.702Z,2.46
2018-12-17T14:11:32.416Z,2.59
2018-12-17T14:12:41.849Z,2.59
2018-12-17T14:13:51.571Z,2.65
2018-12-17T14:15:01.254Z,2.68
2018-12-17T14:16:10.957Z,2.73
2018-12-17T14:17:20.662Z,2.76
2018-12-17T14:18:30.623Z,2.73
2018-12-17T14:19:40.606Z,2.69
2018-12-17T14:20:50.546Z,2.75
2018-12-17T14:22:00.479Z,2.7
2018-12-17T14:23:10.419Z,2.75
2018-12-17T14:24:20.639Z,2.75
2018-12-17T14:25:30.586Z,2.69
2018-12-17T14:26:40.535Z,2.79
2018-12-17T14:27:50.282Z,2.7
2018-12-17T14:29:00.231Z,2.77
2018-12-17T14:30:10.183Z,2.72
2018-12-17T14:31:20.118Z,2.68
2018-12-17T14:32:36.211Z,2.68
2018-12-17T14:33:45.907Z,2.69
2018-12-17T14:34:55.861Z,2.61
2018-12-17T14:36:05.803Z,2.58
2018-12-17T14:37:15.765Z,2.62
2018-12-17T14:38:25.458Z,2.5
2018-12-17T14:39:35.169Z,2.46
2018-12-17T14:40:45.195Z,2.51
2018-12-17T14:41:55.135Z,2.46
2018-12-17T14:43:04.833Z,2.47
2018-12-17T14:44:14.773Z,2.46
2018-12-17T14:45:24.714Z,2.43
2018-12-17T14:46:33.898Z,2.47
2018-12-17T14:47:43.572Z,2.51
2018-12-17T14:48:53.274Z,2.46
2018-12-17T14:50:03.228Z,2.54
2018-12-17T14:51:13.180Z,2.55
2018-12-17T14:52:23.146Z,2.51
2018-12-17T14:53:33.088Z,2.47
2018-12-17T14:54:43.039Z,2.54
2018-12-17T14:55:52.998Z,2.52
2018-12-17T14:57:02.691Z,2.51
2018-12-17T14:58:12.376Z,2.46
2018-12-17T14:59:22.059Z,2.46
2018-12-17T15:00:32.037Z,2.5
2018-12-17T15:01:41.737Z,2.52
2018-12-17T15:02:51.683Z,2.51
2018-12-17T15:04:01.621Z,2.43
2018-12-17T15:05:11.591Z,2.51
2018-12-17T15:06:21.533Z,2.47
2018-12-17T15:07:32.311Z,2.54
2018-12-17T15:08:42.251Z,2.51
2018-12-17T15:09:52.233Z,2.52
2018-12-17T15:11:01.934Z,2.61
2018-12-17T15:12:11.731Z,2.47
2018-12-17T15:13:21.425Z,2.55
2018-12-17T15:14:31.348Z,2.57
2018-12-17T15:15:41.291Z,2.59
2018-12-17T15:16:50.983Z,2.59
2018-12-17T15:18:00.674Z,2.62
2018-12-17T15:19:10.364Z,2.59
2018-12-17T15:20:21.555Z,2.57
2018-12-17T15:21:31.519Z,2.62
2018-12-17T15:22:41.208Z,2.58
2018-12-17T15:23:51.185Z,2.52
2018-12-17T15:25:01.216Z,2.57